sensor_id;sensor_type;location;lat;lon;timestamp;P1;durP1;ratioP1;P2;durP2;ratioP2
73814;SDS011;62145;55.648;37.602;2023-07-13T00:01:45;7.60;;;2.00;;
73814;SDS011;62145;55.648;37.602;2023-07-13T00:04:18;5.13;;;2.00;;
73814;SDS011;62145;55.648;37.602;2023-07-13T00:06:45;4.78;;;2.08;;
73814;SDS011;62145;55.648;37.602;2023-07-13T00:09:12;4.13;;;1.70;;
73814;SDS011;62145;55.648;37.602;2023-07-13T00:11:41;6.43;;;2.00;;
73814;SDS011;62145;55.648;37.602;2023-07-13T00:14:08;4.53;;;1.80;;
73814;SDS011;62145;55.648;37.602;2023-07-13T00:16:35;4.10;;;1.70;;
73814;SDS011;62145;55.648;37.602;2023-07-13T00:19:02;4.18;;;1.65;;
73814;SDS011;62145;55.648;37.602;2023-07-13T00:21:27;4.60;;;1.70;;
73814;SDS011;62145;55.648;37.602;2023-07-13T00:23:53;4.67;;;1.90;;
73814;SDS011;62145;55.648;37.602;2023-07-13T00:26:19;5.47;;;1.83;;
73814;SDS011;62145;55.648;37.602;2023-07-13T00:28:45;5.17;;;1.70;;
73814;SDS011;62145;55.648;37.602;2023-07-13T00:31:11;4.57;;;1.73;;
73814;SDS011;62145;55.648;37.602;2023-07-13T00:33:37;5.53;;;1.98;;
73814;SDS011;62145;55.648;37.602;2023-07-13T00:36:03;4.67;;;1.80;;
73814;SDS011;62145;55.648;37.602;2023-07-13T00:38:29;4.88;;;2.00;;
73814;SDS011;62145;55.648;37.602;2023-07-13T00:40:55;5.15;;;1.80;;
73814;SDS011;62145;55.648;37.602;2023-07-13T00:43:23;4.30;;;1.70;;
73814;SDS011;62145;55.648;37.602;2023-07-13T00:48:20;5.75;;;1.80;;
73814;SDS011;62145;55.648;37.602;2023-07-13T00:50:48;4.07;;;1.75;;
73814;SDS011;62145;55.648;37.602;2023-07-13T00:53:16;5.67;;;1.90;;
73814;SDS011;62145;55.648;37.602;2023-07-13T00:55:43;5.32;;;2.15;;
73814;SDS011;62145;55.648;37.602;2023-07-13T00:58:09;5.53;;;2.08;;
73814;SDS011;62145;55.648;37.602;2023-07-13T01:00:35;4.00;;;1.73;;
73814;SDS011;62145;55.648;37.602;2023-07-13T01:03:02;5.07;;;2.00;;
73814;SDS011;62145;55.648;37.602;2023-07-13T01:05:30;5.50;;;1.80;;
73814;SDS011;62145;55.648;37.602;2023-07-13T01:07:58;4.80;;;2.00;;
73814;SDS011;62145;55.648;37.602;2023-07-13T01:10:25;4.72;;;2.00;;
73814;SDS011;62145;55.648;37.602;2023-07-13T01:12:52;5.47;;;2.03;;
73814;SDS011;62145;55.648;37.602;2023-07-13T01:15:41;4.30;;;1.90;;
73814;SDS011;62145;55.648;37.602;2023-07-13T01:18:22;4.60;;;1.80;;
73814;SDS011;62145;55.648;37.602;2023-07-13T01:20:53;4.82;;;1.80;;
73814;SDS011;62145;55.648;37.602;2023-07-13T01:23:22;4.55;;;1.80;;
73814;SDS011;62145;55.648;37.602;2023-07-13T01:25:50;4.68;;;2.03;;
73814;SDS011;62145;55.648;37.602;2023-07-13T01:28:16;5.90;;;1.93;;
73814;SDS011;62145;55.648;37.602;2023-07-13T01:30:43;5.32;;;2.10;;
73814;SDS011;62145;55.648;37.602;2023-07-13T01:33:12;4.40;;;1.85;;
73814;SDS011;62145;55.648;37.602;2023-07-13T01:35:40;5.13;;;2.13;;
73814;SDS011;62145;55.648;37.602;2023-07-13T01:38:09;5.43;;;1.92;;
73814;SDS011;62145;55.648;37.602;2023-07-13T01:40:37;5.50;;;2.00;;
73814;SDS011;62145;55.648;37.602;2023-07-13T01:43:03;6.20;;;2.13;;
73814;SDS011;62145;55.648;37.602;2023-07-13T01:45:31;5.38;;;2.22;;
73814;SDS011;62145;55.648;37.602;2023-07-13T01:47:57;4.70;;;2.30;;
73814;SDS011;62145;55.648;37.602;2023-07-13T01:50:24;5.68;;;2.20;;
73814;SDS011;62145;55.648;37.602;2023-07-13T01:52:52;5.13;;;2.00;;
73814;SDS011;62145;55.648;37.602;2023-07-13T01:55:18;5.18;;;2.33;;
73814;SDS011;62145;55.648;37.602;2023-07-13T01:57:45;5.07;;;2.03;;
73814;SDS011;62145;55.648;37.602;2023-07-13T02:00:12;6.72;;;2.03;;
73814;SDS011;62145;55.648;37.602;2023-07-13T02:02:41;5.95;;;2.08;;
73814;SDS011;62145;55.648;37.602;2023-07-13T02:05:10;6.83;;;2.20;;
73814;SDS011;62145;55.648;37.602;2023-07-13T02:07:38;5.35;;;1.90;;
73814;SDS011;62145;55.648;37.602;2023-07-13T02:10:06;6.78;;;2.30;;
73814;SDS011;62145;55.648;37.602;2023-07-13T02:12:34;5.40;;;2.10;;
73814;SDS011;62145;55.648;37.602;2023-07-13T02:15:02;4.70;;;2.03;;
73814;SDS011;62145;55.648;37.602;2023-07-13T02:17:31;7.17;;;2.43;;
73814;SDS011;62145;55.648;37.602;2023-07-13T02:19:57;7.20;;;2.20;;
73814;SDS011;62145;55.648;37.602;2023-07-13T02:22:24;6.60;;;2.33;;
73814;SDS011;62145;55.648;37.602;2023-07-13T02:24:50;6.20;;;2.40;;
73814;SDS011;62145;55.648;37.602;2023-07-13T02:27:17;7.07;;;2.40;;
73814;SDS011;62145;55.648;37.602;2023-07-13T02:29:43;6.13;;;2.30;;
73814;SDS011;62145;55.648;37.602;2023-07-13T02:32:09;5.65;;;2.13;;
73814;SDS011;62145;55.648;37.602;2023-07-13T02:34:38;5.07;;;2.03;;
73814;SDS011;62145;55.648;37.602;2023-07-13T02:37:05;5.18;;;2.30;;
73814;SDS011;62145;55.648;37.602;2023-07-13T02:39:31;5.90;;;2.47;;
73814;SDS011;62145;55.648;37.602;2023-07-13T02:41:58;5.78;;;2.28;;
73814;SDS011;62145;55.648;37.602;2023-07-13T02:44:25;5.28;;;2.15;;
73814;SDS011;62145;55.648;37.602;2023-07-13T02:46:52;6.05;;;2.42;;
73814;SDS011;62145;55.648;37.602;2023-07-13T02:49:19;6.63;;;2.38;;
73814;SDS011;62145;55.648;37.602;2023-07-13T02:51:44;5.90;;;2.20;;
73814;SDS011;62145;55.648;37.602;2023-07-13T02:54:10;5.47;;;2.42;;
73814;SDS011;62145;55.648;37.602;2023-07-13T02:56:39;6.65;;;2.20;;
73814;SDS011;62145;55.648;37.602;2023-07-13T02:59:06;7.13;;;2.40;;
73814;SDS011;62145;55.648;37.602;2023-07-13T03:01:35;5.55;;;2.45;;
73814;SDS011;62145;55.648;37.602;2023-07-13T03:04:02;6.28;;;2.50;;
73814;SDS011;62145;55.648;37.602;2023-07-13T03:06:31;5.57;;;2.40;;
73814;SDS011;62145;55.648;37.602;2023-07-13T03:08:58;6.28;;;2.15;;
73814;SDS011;62145;55.648;37.602;2023-07-13T03:11:26;4.97;;;2.10;;
73814;SDS011;62145;55.648;37.602;2023-07-13T03:14:18;6.13;;;2.13;;
73814;SDS011;62145;55.648;37.602;2023-07-13T03:17:03;5.22;;;2.28;;
73814;SDS011;62145;55.648;37.602;2023-07-13T03:19:32;5.47;;;2.20;;
73814;SDS011;62145;55.648;37.602;2023-07-13T03:21:58;5.60;;;2.40;;
73814;SDS011;62145;55.648;37.602;2023-07-13T03:24:24;7.05;;;2.70;;
73814;SDS011;62145;55.648;37.602;2023-07-13T03:26:51;6.45;;;2.30;;
73814;SDS011;62145;55.648;37.602;2023-07-13T03:29:17;6.25;;;2.30;;
73814;SDS011;62145;55.648;37.602;2023-07-13T03:31:44;5.00;;;2.37;;
73814;SDS011;62145;55.648;37.602;2023-07-13T03:34:10;7.20;;;2.38;;
73814;SDS011;62145;55.648;37.602;2023-07-13T03:36:37;5.47;;;2.25;;
73814;SDS011;62145;55.648;37.602;2023-07-13T03:39:05;4.93;;;2.10;;
73814;SDS011;62145;55.648;37.602;2023-07-13T03:41:44;8.00;;;2.40;;
73814;SDS011;62145;55.648;37.602;2023-07-13T03:44:11;4.60;;;2.20;;
73814;SDS011;62145;55.648;37.602;2023-07-13T03:46:37;8.32;;;2.35;;
73814;SDS011;62145;55.648;37.602;2023-07-13T03:49:04;4.85;;;2.20;;
73814;SDS011;62145;55.648;37.602;2023-07-13T03:51:31;5.28;;;2.20;;
73814;SDS011;62145;55.648;37.602;2023-07-13T03:53:59;5.37;;;2.20;;
73814;SDS011;62145;55.648;37.602;2023-07-13T03:56:24;6.90;;;2.28;;
73814;SDS011;62145;55.648;37.602;2023-07-13T03:58:51;5.15;;;2.17;;
73814;SDS011;62145;55.648;37.602;2023-07-13T04:01:19;5.10;;;1.83;;
73814;SDS011;62145;55.648;37.602;2023-07-13T04:03:46;5.00;;;2.20;;
73814;SDS011;62145;55.648;37.602;2023-07-13T04:06:18;4.88;;;2.22;;
73814;SDS011;62145;55.648;37.602;2023-07-13T04:08:53;5.93;;;2.20;;
73814;SDS011;62145;55.648;37.602;2023-07-13T04:11:21;5.63;;;2.20;;
73814;SDS011;62145;55.648;37.602;2023-07-13T04:13:51;5.95;;;2.42;;
73814;SDS011;62145;55.648;37.602;2023-07-13T04:16:19;6.43;;;2.30;;
73814;SDS011;62145;55.648;37.602;2023-07-13T04:18:46;6.45;;;2.40;;
73814;SDS011;62145;55.648;37.602;2023-07-13T04:21:18;6.53;;;2.30;;
73814;SDS011;62145;55.648;37.602;2023-07-13T04:23:46;8.82;;;2.40;;
73814;SDS011;62145;55.648;37.602;2023-07-13T04:26:12;6.63;;;2.47;;
73814;SDS011;62145;55.648;37.602;2023-07-13T04:28:39;7.47;;;2.67;;
73814;SDS011;62145;55.648;37.602;2023-07-13T04:31:08;5.63;;;2.13;;
73814;SDS011;62145;55.648;37.602;2023-07-13T04:33:34;7.05;;;2.50;;
73814;SDS011;62145;55.648;37.602;2023-07-13T04:36:00;6.43;;;2.40;;
73814;SDS011;62145;55.648;37.602;2023-07-13T04:38:28;6.10;;;2.50;;
73814;SDS011;62145;55.648;37.602;2023-07-13T04:40:58;6.40;;;2.50;;
73814;SDS011;62145;55.648;37.602;2023-07-13T04:43:28;5.47;;;2.72;;
73814;SDS011;62145;55.648;37.602;2023-07-13T04:45:57;6.32;;;2.53;;
73814;SDS011;62145;55.648;37.602;2023-07-13T04:48:27;8.32;;;2.70;;
73814;SDS011;62145;55.648;37.602;2023-07-13T04:50:56;6.17;;;2.67;;
73814;SDS011;62145;55.648;37.602;2023-07-13T04:53:28;5.18;;;2.60;;
73814;SDS011;62145;55.648;37.602;2023-07-13T04:55:57;6.55;;;2.42;;
73814;SDS011;62145;55.648;37.602;2023-07-13T04:58:25;5.90;;;2.50;;
73814;SDS011;62145;55.648;37.602;2023-07-13T05:00:51;5.72;;;2.30;;
73814;SDS011;62145;55.648;37.602;2023-07-13T05:03:18;7.50;;;2.70;;
73814;SDS011;62145;55.648;37.602;2023-07-13T05:05:54;6.10;;;2.50;;
73814;SDS011;62145;55.648;37.602;2023-07-13T05:08:23;5.47;;;2.10;;
73814;SDS011;62145;55.648;37.602;2023-07-13T05:10:51;6.03;;;2.55;;
73814;SDS011;62145;55.648;37.602;2023-07-13T05:13:18;6.23;;;2.50;;
73814;SDS011;62145;55.648;37.602;2023-07-13T05:15:47;8.93;;;2.38;;
73814;SDS011;62145;55.648;37.602;2023-07-13T05:18:34;6.57;;;2.60;;
73814;SDS011;62145;55.648;37.602;2023-07-13T05:21:04;5.65;;;2.40;;
73814;SDS011;62145;55.648;37.602;2023-07-13T05:23:33;5.80;;;2.40;;
73814;SDS011;62145;55.648;37.602;2023-07-13T05:26:00;5.30;;;2.23;;
73814;SDS011;62145;55.648;37.602;2023-07-13T05:28:27;5.88;;;2.20;;
73814;SDS011;62145;55.648;37.602;2023-07-13T05:30:53;7.72;;;2.38;;
73814;SDS011;62145;55.648;37.602;2023-07-13T05:33:22;6.53;;;2.42;;
73814;SDS011;62145;55.648;37.602;2023-07-13T05:35:50;5.70;;;2.40;;
73814;SDS011;62145;55.648;37.602;2023-07-13T05:38:16;6.20;;;2.30;;
73814;SDS011;62145;55.648;37.602;2023-07-13T05:40:43;5.50;;;2.40;;
73814;SDS011;62145;55.648;37.602;2023-07-13T05:43:10;5.65;;;2.38;;
73814;SDS011;62145;55.648;37.602;2023-07-13T05:45:37;6.03;;;2.63;;
73814;SDS011;62145;55.648;37.602;2023-07-13T05:48:05;5.53;;;2.30;;
73814;SDS011;62145;55.648;37.602;2023-07-13T05:50:33;5.55;;;2.35;;
73814;SDS011;62145;55.648;37.602;2023-07-13T05:52:59;6.68;;;2.50;;
73814;SDS011;62145;55.648;37.602;2023-07-13T05:55:26;7.17;;;2.60;;
73814;SDS011;62145;55.648;37.602;2023-07-13T05:57:52;4.53;;;2.10;;
73814;SDS011;62145;55.648;37.602;2023-07-13T06:00:18;5.50;;;2.30;;
73814;SDS011;62145;55.648;37.602;2023-07-13T06:02:45;5.63;;;2.35;;
73814;SDS011;62145;55.648;37.602;2023-07-13T06:05:13;7.60;;;2.40;;
73814;SDS011;62145;55.648;37.602;2023-07-13T06:07:39;5.03;;;2.30;;
73814;SDS011;62145;55.648;37.602;2023-07-13T06:10:07;5.32;;;2.17;;
73814;SDS011;62145;55.648;37.602;2023-07-13T06:12:36;5.47;;;2.40;;
73814;SDS011;62145;55.648;37.602;2023-07-13T06:15:05;6.28;;;2.17;;
73814;SDS011;62145;55.648;37.602;2023-07-13T06:17:32;5.20;;;2.20;;
73814;SDS011;62145;55.648;37.602;2023-07-13T06:19:58;8.37;;;2.60;;
73814;SDS011;62145;55.648;37.602;2023-07-13T06:22:28;7.50;;;3.40;;
73814;SDS011;62145;55.648;37.602;2023-07-13T06:24:56;6.32;;;2.30;;
73814;SDS011;62145;55.648;37.602;2023-07-13T06:27:23;4.55;;;2.30;;
73814;SDS011;62145;55.648;37.602;2023-07-13T06:29:54;6.75;;;2.40;;
73814;SDS011;62145;55.648;37.602;2023-07-13T06:32:20;5.90;;;2.30;;
73814;SDS011;62145;55.648;37.602;2023-07-13T06:34:50;5.85;;;2.60;;
73814;SDS011;62145;55.648;37.602;2023-07-13T06:37:17;5.50;;;2.40;;
73814;SDS011;62145;55.648;37.602;2023-07-13T06:39:46;8.02;;;2.28;;
73814;SDS011;62145;55.648;37.602;2023-07-13T06:42:13;5.07;;;2.30;;
73814;SDS011;62145;55.648;37.602;2023-07-13T06:44:49;6.07;;;2.47;;
73814;SDS011;62145;55.648;37.602;2023-07-13T06:47:17;7.65;;;2.10;;
73814;SDS011;62145;55.648;37.602;2023-07-13T06:49:48;7.88;;;2.78;;
73814;SDS011;62145;55.648;37.602;2023-07-13T06:52:16;6.43;;;2.85;;
73814;SDS011;62145;55.648;37.602;2023-07-13T06:54:42;7.53;;;2.73;;
73814;SDS011;62145;55.648;37.602;2023-07-13T06:57:12;6.97;;;2.30;;
73814;SDS011;62145;55.648;37.602;2023-07-13T06:59:41;5.90;;;2.50;;
73814;SDS011;62145;55.648;37.602;2023-07-13T07:02:11;6.18;;;2.00;;
73814;SDS011;62145;55.648;37.602;2023-07-13T07:04:38;5.28;;;2.20;;
73814;SDS011;62145;55.648;37.602;2023-07-13T07:07:04;5.80;;;2.17;;
73814;SDS011;62145;55.648;37.602;2023-07-13T07:09:31;5.53;;;2.20;;
73814;SDS011;62145;55.648;37.602;2023-07-13T07:11:58;5.55;;;2.20;;
73814;SDS011;62145;55.648;37.602;2023-07-13T07:14:25;6.78;;;2.40;;
73814;SDS011;62145;55.648;37.602;2023-07-13T07:16:52;6.97;;;2.30;;
73814;SDS011;62145;55.648;37.602;2023-07-13T07:19:18;4.72;;;2.25;;
73814;SDS011;62145;55.648;37.602;2023-07-13T07:21:45;6.73;;;2.30;;
73814;SDS011;62145;55.648;37.602;2023-07-13T07:24:11;6.57;;;2.05;;
73814;SDS011;62145;55.648;37.602;2023-07-13T07:26:37;6.07;;;2.30;;
73814;SDS011;62145;55.648;37.602;2023-07-13T07:29:03;5.17;;;2.13;;
73814;SDS011;62145;55.648;37.602;2023-07-13T07:31:29;5.93;;;2.15;;
73814;SDS011;62145;55.648;37.602;2023-07-13T07:33:55;7.43;;;2.40;;
73814;SDS011;62145;55.648;37.602;2023-07-13T07:36:21;5.78;;;2.45;;
73814;SDS011;62145;55.648;37.602;2023-07-13T07:38:47;5.63;;;2.33;;
73814;SDS011;62145;55.648;37.602;2023-07-13T07:41:13;6.70;;;2.55;;
73814;SDS011;62145;55.648;37.602;2023-07-13T07:43:39;8.68;;;2.40;;
73814;SDS011;62145;55.648;37.602;2023-07-13T07:46:05;6.07;;;2.60;;
73814;SDS011;62145;55.648;37.602;2023-07-13T07:48:35;8.13;;;2.50;;
73814;SDS011;62145;55.648;37.602;2023-07-13T07:51:01;7.20;;;2.40;;
73814;SDS011;62145;55.648;37.602;2023-07-13T07:53:28;5.90;;;2.13;;
73814;SDS011;62145;55.648;37.602;2023-07-13T07:55:56;5.25;;;2.35;;
73814;SDS011;62145;55.648;37.602;2023-07-13T07:58:24;7.03;;;2.40;;
73814;SDS011;62145;55.648;37.602;2023-07-13T08:01:16;6.43;;;2.47;;
73814;SDS011;62145;55.648;37.602;2023-07-13T08:03:46;6.72;;;2.50;;
73814;SDS011;62145;55.648;37.602;2023-07-13T08:06:14;7.63;;;2.70;;
73814;SDS011;62145;55.648;37.602;2023-07-13T08:08:41;6.47;;;2.67;;
73814;SDS011;62145;55.648;37.602;2023-07-13T08:11:08;5.53;;;2.38;;
73814;SDS011;62145;55.648;37.602;2023-07-13T08:13:39;5.77;;;2.57;;
73814;SDS011;62145;55.648;37.602;2023-07-13T08:16:06;5.55;;;2.50;;
73814;SDS011;62145;55.648;37.602;2023-07-13T08:18:32;7.53;;;2.85;;
73814;SDS011;62145;55.648;37.602;2023-07-13T08:21:03;10.05;;;3.08;;
73814;SDS011;62145;55.648;37.602;2023-07-13T08:23:32;7.25;;;2.65;;
73814;SDS011;62145;55.648;37.602;2023-07-13T08:26:00;6.70;;;2.60;;
73814;SDS011;62145;55.648;37.602;2023-07-13T08:28:27;6.10;;;2.35;;
73814;SDS011;62145;55.648;37.602;2023-07-13T08:30:55;6.90;;;2.40;;
73814;SDS011;62145;55.648;37.602;2023-07-13T08:33:22;6.05;;;2.10;;
73814;SDS011;62145;55.648;37.602;2023-07-13T08:35:54;6.00;;;2.22;;
73814;SDS011;62145;55.648;37.602;2023-07-13T08:38:22;4.97;;;1.97;;
73814;SDS011;62145;55.648;37.602;2023-07-13T08:40:54;4.88;;;1.90;;
73814;SDS011;62145;55.648;37.602;2023-07-13T08:43:28;9.25;;;4.15;;
73814;SDS011;62145;55.648;37.602;2023-07-13T08:45:58;4.97;;;2.08;;
73814;SDS011;62145;55.648;37.602;2023-07-13T08:48:33;5.43;;;2.13;;
73814;SDS011;62145;55.648;37.602;2023-07-13T08:51:04;5.63;;;2.13;;
73814;SDS011;62145;55.648;37.602;2023-07-13T08:53:36;5.95;;;2.15;;
73814;SDS011;62145;55.648;37.602;2023-07-13T08:56:20;5.20;;;2.20;;
73814;SDS011;62145;55.648;37.602;2023-07-13T08:58:49;5.85;;;2.53;;
73814;SDS011;62145;55.648;37.602;2023-07-13T09:04:32;7.33;;;2.40;;
73814;SDS011;62145;55.648;37.602;2023-07-13T09:07:03;7.25;;;2.80;;
73814;SDS011;62145;55.648;37.602;2023-07-13T09:12:17;6.55;;;2.90;;
73814;SDS011;62145;55.648;37.602;2023-07-13T09:14:53;8.88;;;3.13;;
73814;SDS011;62145;55.648;37.602;2023-07-13T09:17:25;6.27;;;3.03;;
73814;SDS011;62145;55.648;37.602;2023-07-13T09:20:38;6.82;;;2.95;;
73814;SDS011;62145;55.648;37.602;2023-07-13T09:23:04;6.97;;;2.78;;
73814;SDS011;62145;55.648;37.602;2023-07-13T09:25:36;6.88;;;2.88;;
73814;SDS011;62145;55.648;37.602;2023-07-13T09:28:05;9.38;;;3.42;;
73814;SDS011;62145;55.648;37.602;2023-07-13T09:33:39;6.80;;;3.00;;
73814;SDS011;62145;55.648;37.602;2023-07-13T09:36:22;6.43;;;3.00;;
73814;SDS011;62145;55.648;37.602;2023-07-13T09:38:59;5.90;;;2.45;;
73814;SDS011;62145;55.648;37.602;2023-07-13T09:42:31;7.95;;;2.83;;
73814;SDS011;62145;55.648;37.602;2023-07-13T09:47:15;6.47;;;2.90;;
73814;SDS011;62145;55.648;37.602;2023-07-13T09:49:45;8.18;;;3.10;;
73814;SDS011;62145;55.648;37.602;2023-07-13T09:52:15;7.80;;;3.22;;
73814;SDS011;62145;55.648;37.602;2023-07-13T09:54:48;9.13;;;4.30;;
73814;SDS011;62145;55.648;37.602;2023-07-13T09:57:22;5.87;;;2.80;;
73814;SDS011;62145;55.648;37.602;2023-07-13T09:59:55;7.95;;;3.47;;
73814;SDS011;62145;55.648;37.602;2023-07-13T10:02:34;7.53;;;3.53;;
73814;SDS011;62145;55.648;37.602;2023-07-13T10:05:13;6.82;;;3.33;;
73814;SDS011;62145;55.648;37.602;2023-07-13T10:07:44;7.30;;;3.00;;
73814;SDS011;62145;55.648;37.602;2023-07-13T10:10:20;7.80;;;3.03;;
73814;SDS011;62145;55.648;37.602;2023-07-13T10:13:01;7.75;;;3.63;;
73814;SDS011;62145;55.648;37.602;2023-07-13T10:15:31;7.28;;;3.20;;
73814;SDS011;62145;55.648;37.602;2023-07-13T10:18:00;7.35;;;3.33;;
73814;SDS011;62145;55.648;37.602;2023-07-13T10:20:28;7.88;;;3.15;;
73814;SDS011;62145;55.648;37.602;2023-07-13T10:23:02;8.10;;;3.23;;
73814;SDS011;62145;55.648;37.602;2023-07-13T10:25:34;7.65;;;3.40;;
73814;SDS011;62145;55.648;37.602;2023-07-13T10:30:51;6.72;;;3.40;;
73814;SDS011;62145;55.648;37.602;2023-07-13T10:33:20;7.63;;;3.50;;
73814;SDS011;62145;55.648;37.602;2023-07-13T10:35:55;7.40;;;3.50;;
73814;SDS011;62145;55.648;37.602;2023-07-13T10:38:31;7.80;;;3.63;;
73814;SDS011;62145;55.648;37.602;2023-07-13T10:41:02;8.68;;;3.55;;
73814;SDS011;62145;55.648;37.602;2023-07-13T10:43:33;7.07;;;3.15;;
73814;SDS011;62145;55.648;37.602;2023-07-13T10:46:10;6.30;;;2.78;;
73814;SDS011;62145;55.648;37.602;2023-07-13T10:48:37;9.43;;;3.43;;
73814;SDS011;62145;55.648;37.602;2023-07-13T10:51:05;11.13;;;3.70;;
73814;SDS011;62145;55.648;37.602;2023-07-13T10:53:34;7.10;;;3.40;;
73814;SDS011;62145;55.648;37.602;2023-07-13T10:56:44;9.07;;;3.30;;
73814;SDS011;62145;55.648;37.602;2023-07-13T11:01:46;7.20;;;2.97;;
73814;SDS011;62145;55.648;37.602;2023-07-13T11:04:17;7.60;;;3.47;;
73814;SDS011;62145;55.648;37.602;2023-07-13T11:06:47;7.53;;;3.25;;
73814;SDS011;62145;55.648;37.602;2023-07-13T11:12:03;9.27;;;3.92;;
73814;SDS011;62145;55.648;37.602;2023-07-13T11:15:02;10.17;;;3.67;;
73814;SDS011;62145;55.648;37.602;2023-07-13T11:25:26;8.33;;;3.70;;
73814;SDS011;62145;55.648;37.602;2023-07-13T11:28:05;9.80;;;3.97;;
73814;SDS011;62145;55.648;37.602;2023-07-13T11:30:35;10.07;;;3.85;;
73814;SDS011;62145;55.648;37.602;2023-07-13T11:36:17;6.88;;;3.45;;
73814;SDS011;62145;55.648;37.602;2023-07-13T11:41:51;9.32;;;3.83;;
73814;SDS011;62145;55.648;37.602;2023-07-13T11:44:20;9.40;;;4.20;;
73814;SDS011;62145;55.648;37.602;2023-07-13T11:46:50;10.02;;;4.18;;
73814;SDS011;62145;55.648;37.602;2023-07-13T11:49:18;7.85;;;3.90;;
73814;SDS011;62145;55.648;37.602;2023-07-13T11:51:45;8.77;;;3.83;;
73814;SDS011;62145;55.648;37.602;2023-07-13T11:57:35;8.30;;;3.40;;
73814;SDS011;62145;55.648;37.602;2023-07-13T12:00:03;8.80;;;3.50;;
73814;SDS011;62145;55.648;37.602;2023-07-13T12:02:36;8.02;;;3.30;;
73814;SDS011;62145;55.648;37.602;2023-07-13T12:05:04;8.37;;;3.83;;
73814;SDS011;62145;55.648;37.602;2023-07-13T12:07:31;10.30;;;3.83;;
73814;SDS011;62145;55.648;37.602;2023-07-13T12:10:13;10.02;;;4.03;;
73814;SDS011;62145;55.648;37.602;2023-07-13T12:12:52;8.40;;;3.85;;
73814;SDS011;62145;55.648;37.602;2023-07-13T12:15:19;8.93;;;3.80;;
73814;SDS011;62145;55.648;37.602;2023-07-13T12:17:47;8.70;;;3.77;;
73814;SDS011;62145;55.648;37.602;2023-07-13T12:20:21;8.10;;;4.00;;
73814;SDS011;62145;55.648;37.602;2023-07-13T12:22:52;10.27;;;4.13;;
73814;SDS011;62145;55.648;37.602;2023-07-13T12:25:19;8.73;;;4.07;;
73814;SDS011;62145;55.648;37.602;2023-07-13T12:27:49;10.20;;;4.45;;
73814;SDS011;62145;55.648;37.602;2023-07-13T12:33:27;8.35;;;3.78;;
73814;SDS011;62145;55.648;37.602;2023-07-13T12:35:46;9.20;;;3.80;;
73814;SDS011;62145;55.648;37.602;2023-07-13T12:38:13;9.07;;;3.60;;
73814;SDS011;62145;55.648;37.602;2023-07-13T12:40:39;7.78;;;3.50;;
73814;SDS011;62145;55.648;37.602;2023-07-13T12:43:10;7.33;;;3.33;;
73814;SDS011;62145;55.648;37.602;2023-07-13T12:45:37;7.95;;;2.80;;
73814;SDS011;62145;55.648;37.602;2023-07-13T12:48:14;8.63;;;3.72;;
73814;SDS011;62145;55.648;37.602;2023-07-13T12:50:42;7.35;;;3.30;;
73814;SDS011;62145;55.648;37.602;2023-07-13T12:53:16;7.85;;;3.40;;
73814;SDS011;62145;55.648;37.602;2023-07-13T12:56:48;7.37;;;3.63;;
73814;SDS011;62145;55.648;37.602;2023-07-13T12:58:47;7.65;;;3.28;;
73814;SDS011;62145;55.648;37.602;2023-07-13T13:01:15;9.02;;;3.40;;
73814;SDS011;62145;55.648;37.602;2023-07-13T13:04:01;7.88;;;3.03;;
73814;SDS011;62145;55.648;37.602;2023-07-13T13:06:34;7.63;;;3.20;;
73814;SDS011;62145;55.648;37.602;2023-07-13T13:09:01;8.20;;;4.03;;
73814;SDS011;62145;55.648;37.602;2023-07-13T13:11:30;7.80;;;3.60;;
73814;SDS011;62145;55.648;37.602;2023-07-13T13:13:57;10.95;;;4.07;;
73814;SDS011;62145;55.648;37.602;2023-07-13T13:16:26;9.70;;;3.67;;
73814;SDS011;62145;55.648;37.602;2023-07-13T13:18:57;9.25;;;3.92;;
73814;SDS011;62145;55.648;37.602;2023-07-13T13:21:26;10.87;;;4.00;;
73814;SDS011;62145;55.648;37.602;2023-07-13T13:23:52;10.57;;;4.35;;
73814;SDS011;62145;55.648;37.602;2023-07-13T13:26:19;9.75;;;4.43;;
73814;SDS011;62145;55.648;37.602;2023-07-13T13:28:49;10.45;;;4.00;;
73814;SDS011;62145;55.648;37.602;2023-07-13T13:31:15;7.75;;;3.30;;
73814;SDS011;62145;55.648;37.602;2023-07-13T13:33:44;8.73;;;4.17;;
73814;SDS011;62145;55.648;37.602;2023-07-13T13:36:15;9.77;;;4.30;;
73814;SDS011;62145;55.648;37.602;2023-07-13T13:38:43;8.48;;;3.60;;
73814;SDS011;62145;55.648;37.602;2023-07-13T13:41:10;8.55;;;3.80;;
73814;SDS011;62145;55.648;37.602;2023-07-13T13:43:36;8.85;;;3.75;;
73814;SDS011;62145;55.648;37.602;2023-07-13T13:46:02;9.10;;;3.70;;
73814;SDS011;62145;55.648;37.602;2023-07-13T13:48:55;7.97;;;3.45;;
73814;SDS011;62145;55.648;37.602;2023-07-13T13:51:22;9.63;;;3.60;;
73814;SDS011;62145;55.648;37.602;2023-07-13T13:53:49;11.77;;;4.30;;
73814;SDS011;62145;55.648;37.602;2023-07-13T13:56:15;9.77;;;4.90;;
73814;SDS011;62145;55.648;37.602;2023-07-13T13:58:43;9.73;;;3.47;;
73814;SDS011;62145;55.648;37.602;2023-07-13T14:01:27;7.85;;;4.22;;
73814;SDS011;62145;55.648;37.602;2023-07-13T14:03:54;9.70;;;4.60;;
73814;SDS011;62145;55.648;37.602;2023-07-13T14:06:22;9.57;;;4.13;;
73814;SDS011;62145;55.648;37.602;2023-07-13T14:08:48;8.97;;;4.17;;
73814;SDS011;62145;55.648;37.602;2023-07-13T14:11:15;9.05;;;4.20;;
73814;SDS011;62145;55.648;37.602;2023-07-13T14:13:48;7.95;;;4.03;;
73814;SDS011;62145;55.648;37.602;2023-07-13T14:16:16;9.35;;;3.90;;
73814;SDS011;62145;55.648;37.602;2023-07-13T14:18:46;8.50;;;3.75;;
73814;SDS011;62145;55.648;37.602;2023-07-13T14:21:17;10.13;;;4.20;;
73814;SDS011;62145;55.648;37.602;2023-07-13T14:23:45;11.80;;;4.20;;
73814;SDS011;62145;55.648;37.602;2023-07-13T14:26:13;9.82;;;4.38;;
73814;SDS011;62145;55.648;37.602;2023-07-13T14:28:50;8.50;;;3.92;;
73814;SDS011;62145;55.648;37.602;2023-07-13T14:31:18;8.40;;;3.97;;
73814;SDS011;62145;55.648;37.602;2023-07-13T14:33:44;8.67;;;4.07;;
73814;SDS011;62145;55.648;37.602;2023-07-13T14:36:33;10.30;;;4.32;;
73814;SDS011;62145;55.648;37.602;2023-07-13T14:39:09;7.07;;;3.78;;
73814;SDS011;62145;55.648;37.602;2023-07-13T14:41:37;8.93;;;3.85;;
73814;SDS011;62145;55.648;37.602;2023-07-13T14:44:23;10.77;;;4.50;;
73814;SDS011;62145;55.648;37.602;2023-07-13T14:46:51;11.57;;;4.47;;
73814;SDS011;62145;55.648;37.602;2023-07-13T14:51:56;10.68;;;4.28;;
73814;SDS011;62145;55.648;37.602;2023-07-13T14:54:23;9.82;;;4.30;;
73814;SDS011;62145;55.648;37.602;2023-07-13T14:56:49;8.45;;;3.50;;
73814;SDS011;62145;55.648;37.602;2023-07-13T14:59:16;11.53;;;3.90;;
73814;SDS011;62145;55.648;37.602;2023-07-13T15:01:44;9.13;;;3.78;;
73814;SDS011;62145;55.648;37.602;2023-07-13T15:04:10;10.23;;;3.95;;
73814;SDS011;62145;55.648;37.602;2023-07-13T15:06:53;9.25;;;3.80;;
73814;SDS011;62145;55.648;37.602;2023-07-13T15:09:20;11.30;;;4.38;;
73814;SDS011;62145;55.648;37.602;2023-07-13T15:11:46;10.10;;;4.30;;
73814;SDS011;62145;55.648;37.602;2023-07-13T15:14:13;8.65;;;3.92;;
73814;SDS011;62145;55.648;37.602;2023-07-13T15:16:38;12.50;;;4.10;;
73814;SDS011;62145;55.648;37.602;2023-07-13T15:19:04;7.93;;;4.00;;
73814;SDS011;62145;55.648;37.602;2023-07-13T15:21:30;8.67;;;3.87;;
73814;SDS011;62145;55.648;37.602;2023-07-13T15:24:00;9.40;;;4.35;;
73814;SDS011;62145;55.648;37.602;2023-07-13T15:26:26;9.38;;;4.18;;
73814;SDS011;62145;55.648;37.602;2023-07-13T15:28:52;12.50;;;4.97;;
73814;SDS011;62145;55.648;37.602;2023-07-13T15:31:25;10.30;;;4.30;;
73814;SDS011;62145;55.648;37.602;2023-07-13T15:33:53;9.07;;;4.13;;